createdAt,value
2022-10-11T00:00:00.317Z,101962.38
2022-10-11T00:02:26.794Z,101967.34
2022-10-11T00:04:53.199Z,101962.22
2022-10-11T00:07:19.893Z,101967.78
2022-10-11T00:09:46.361Z,101969.75
2022-10-11T00:12:12.730Z,101976.25
2022-10-11T00:14:39.160Z,101978.91
2022-10-11T00:17:07.792Z,101980.50
2022-10-11T00:19:34.358Z,101983.69
2022-10-11T00:22:00.799Z,101974.72
2022-10-11T00:24:27.192Z,101977.34
2022-10-11T00:26:53.557Z,101973.13
2022-10-11T00:29:20.007Z,101982.28
2022-10-11T00:31:46.381Z,101983.75
2022-10-11T00:34:13.267Z,101987.66
2022-10-11T00:36:39.633Z,101990.63
2022-10-11T00:39:06.249Z,101991.34
2022-10-11T00:41:32.644Z,101991.25
2022-10-11T00:44:28.119Z,101994.53
2022-10-11T00:46:57.291Z,101986.56
2022-10-11T00:49:23.629Z,101987.25
2022-10-11T00:51:54.985Z,101984.50
2022-10-11T00:54:23.872Z,101988.03
2022-10-11T00:56:53.100Z,101999.44
2022-10-11T00:59:22.868Z,101997.63
2022-10-11T01:01:49.437Z,102008.94
2022-10-11T01:04:15.920Z,101998.50
2022-10-11T01:06:42.736Z,102007.66
2022-10-11T01:09:09.702Z,102012.88
2022-10-11T01:11:37.759Z,102009.56
2022-10-11T01:14:07.221Z,102009.34
2022-10-11T01:16:39.572Z,102011.94
2022-10-11T01:19:12.067Z,102010.44
2022-10-11T01:21:46.599Z,102006.34
2022-10-11T01:24:19.236Z,102012.69
2022-10-11T01:26:56.597Z,102012.69
2022-10-11T01:29:44.318Z,102010.06
2022-10-11T01:32:10.687Z,102011.94
2022-10-11T01:34:46.107Z,102011.81
2022-10-11T01:37:34.022Z,102025.78
2022-10-11T01:40:26.840Z,102018.97
2022-10-11T01:42:54.468Z,102023.41
2022-10-11T01:45:21.713Z,102026.00
2022-10-11T01:47:48.634Z,102018.88
2022-10-11T01:50:34.129Z,102014.94
2022-10-11T01:53:08.637Z,102019.44
2022-10-11T01:55:43.553Z,102020.31
2022-10-11T01:58:15.167Z,102019.34
2022-10-11T02:01:07.885Z,102024.47
2022-10-11T02:03:43.430Z,102023.75
2022-10-11T02:06:12.387Z,102016.50
2022-10-11T02:08:41.953Z,102019.97
2022-10-11T02:11:24.311Z,102013.97
2022-10-11T02:13:54.473Z,102017.78
2022-10-11T02:16:26.086Z,102017.72
2022-10-11T02:18:52.821Z,102015.91
2022-10-11T02:21:20.127Z,102019.44
2022-10-11T02:24:15.892Z,102029.28
2022-10-11T02:26:45.865Z,102019.25
2022-10-11T02:29:15.014Z,102027.53
2022-10-11T02:31:42.043Z,102028.50
2022-10-11T02:34:14.209Z,102026.84
2022-10-11T02:36:43.735Z,102032.28
2022-10-11T02:39:39.828Z,102027.25
2022-10-11T02:42:08.260Z,102031.09
2022-10-11T02:44:40.447Z,102034.88
2022-10-11T02:47:07.613Z,102038.50
2022-10-11T02:49:34.565Z,102037.63
2022-10-11T02:52:01.020Z,102038.44
2022-10-11T02:54:27.701Z,102043.72
2022-10-11T02:56:54.084Z,102045.53
2022-10-11T02:59:20.542Z,102045.63
2022-10-11T03:01:47.012Z,102046.56
2022-10-11T03:04:13.419Z,102043.91
2022-10-11T03:06:39.824Z,102052.78
2022-10-11T03:09:09.149Z,102056.03
2022-10-11T03:11:35.568Z,102053.41
2022-10-11T03:14:01.945Z,102057.00
2022-10-11T03:16:28.294Z,102055.22
2022-10-11T03:18:54.637Z,102064.75
2022-10-11T03:21:21.070Z,102061.28
2022-10-11T03:23:47.447Z,102070.78
2022-10-11T03:26:13.943Z,102062.72
2022-10-11T03:28:40.326Z,102069.63
2022-10-11T03:31:06.693Z,102069.69
2022-10-11T03:33:33.033Z,102067.16
2022-10-11T03:35:59.407Z,102068.09
2022-10-11T03:38:25.774Z,102076.84
2022-10-11T03:40:52.152Z,102069.94
2022-10-11T03:43:18.493Z,102081.47
2022-10-11T03:45:45.104Z,102079.81
2022-10-11T03:48:11.476Z,102077.22
2022-10-11T03:50:37.966Z,102086.00
2022-10-11T03:53:05.152Z,102078.94
2022-10-11T03:55:31.659Z,102085.09
2022-10-11T03:57:58.074Z,102090.44
2022-10-11T04:00:24.506Z,102086.31
2022-10-11T04:02:50.900Z,102080.31
2022-10-11T04:05:17.327Z,102089.28
2022-10-11T04:07:43.715Z,102085.84
2022-10-11T04:10:10.087Z,102086.69
2022-10-11T04:12:36.990Z,102085.72
2022-10-11T04:15:03.590Z,102089.22
2022-10-11T04:17:29.966Z,102091.94
2022-10-11T04:19:56.302Z,102094.66
2022-10-11T04:22:31.755Z,102097.41
2022-10-11T04:24:58.261Z,102097.59
2022-10-11T04:27:27.563Z,102096.94
2022-10-11T04:29:54.438Z,102104.25
2022-10-11T04:32:23.458Z,102108.59
2022-10-11T04:34:59.223Z,102099.34
2022-10-11T04:37:25.902Z,102104.69
2022-10-11T04:39:52.320Z,102101.28
2022-10-11T04:42:18.720Z,102107.66
2022-10-11T04:44:45.044Z,102109.53
2022-10-11T04:47:11.460Z,102114.75
2022-10-11T04:49:37.827Z,102111.25
2022-10-11T04:52:04.305Z,102117.53
2022-10-11T04:54:30.708Z,102126.22
2022-10-11T04:56:57.142Z,102117.66
2022-10-11T04:59:23.522Z,102121.91
2022-10-11T05:01:49.894Z,102121.91
2022-10-11T05:04:16.223Z,102129.75
2022-10-11T05:06:42.626Z,102123.88
2022-10-11T05:09:08.996Z,102134.38
2022-10-11T05:11:35.426Z,102128.88
2022-10-11T05:14:01.785Z,102127.81
2022-10-11T05:16:28.354Z,102141.16
2022-10-11T05:18:54.703Z,102141.47
2022-10-11T05:21:22.548Z,102138.97
2022-10-11T05:23:50.990Z,102139.09
2022-10-11T05:26:17.810Z,102140.34
2022-10-11T05:28:44.272Z,102142.19
2022-10-11T05:31:10.782Z,102152.63
2022-10-11T05:33:37.348Z,102144.75
2022-10-11T05:36:04.489Z,102152.56
2022-10-11T05:38:31.296Z,102162.31
2022-10-11T05:41:02.109Z,102158.78
2022-10-11T05:43:29.125Z,102159.66
2022-10-11T05:45:56.216Z,102156.09
2022-10-11T05:48:23.998Z,102158.72
2022-10-11T05:50:50.358Z,102169.22
2022-10-11T05:53:16.873Z,102163.09
2022-10-11T05:55:43.369Z,102163.78
2022-10-11T05:58:14.023Z,102166.41
2022-10-11T06:00:40.991Z,102176.25
2022-10-11T06:03:08.283Z,102180.81
2022-10-11T06:05:34.895Z,102167.72
2022-10-11T06:08:01.611Z,102173.66
2022-10-11T06:10:28.112Z,102179.69
2022-10-11T06:12:54.553Z,102183.28
2022-10-11T06:15:20.901Z,102185.88
2022-10-11T06:17:47.477Z,102187.56
2022-10-11T06:20:13.855Z,102190.13
2022-10-11T06:22:40.259Z,102196.41
2022-10-11T06:25:07.327Z,102188.69
2022-10-11T06:27:33.692Z,102196.63
2022-10-11T06:30:00.133Z,102203.78
2022-10-11T06:32:26.786Z,102206.28
2022-10-11T06:34:53.174Z,102205.59
2022-10-11T06:37:19.579Z,102203.69
2022-10-11T06:39:46.345Z,102203.56
2022-10-11T06:42:13.112Z,102211.28
2022-10-11T06:44:39.485Z,102212.19
2022-10-11T06:47:06.463Z,102212.22
2022-10-11T06:49:33.199Z,102214.41
2022-10-11T06:51:59.645Z,102217.22
2022-10-11T06:54:26.078Z,102228.28
2022-10-11T06:56:52.481Z,102227.06
2022-10-11T06:59:19.143Z,102233.63
2022-10-11T07:01:45.570Z,102232.81
2022-10-11T07:04:11.973Z,102233.63
2022-10-11T07:06:39.892Z,102234.16
2022-10-11T07:09:07.025Z,102235.97
2022-10-11T07:11:33.969Z,102241.03
2022-10-11T07:14:01.918Z,102244.25
2022-10-11T07:16:28.655Z,102239.63
2022-10-11T07:19:00.287Z,102251.84
2022-10-11T07:21:27.885Z,102252.31
2022-10-11T07:23:54.249Z,102261.16
2022-10-11T07:26:20.720Z,102259.22
2022-10-11T07:28:47.381Z,102260.94
2022-10-11T07:31:16.073Z,102262.97
2022-10-11T07:33:42.466Z,102267.78
2022-10-11T07:36:09.457Z,102264.03
2022-10-11T07:38:38.273Z,102267.91
2022-10-11T07:41:05.429Z,102267.03
2022-10-11T07:43:31.942Z,102271.97
2022-10-11T07:46:04.071Z,102269.66
2022-10-11T07:48:31.450Z,102264.09
2022-10-11T07:51:08.592Z,102268.22
2022-10-11T07:53:38.857Z,102270.63
2022-10-11T07:56:05.540Z,102269.16
2022-10-11T07:58:32.158Z,102268.47
2022-10-11T08:00:58.618Z,102276.75
2022-10-11T08:03:25.094Z,102277.91
2022-10-11T08:05:52.499Z,102282.06
2022-10-11T08:08:19.409Z,102281.88
2022-10-11T08:10:45.840Z,102281.38
2022-10-11T08:13:12.349Z,102278.06
2022-10-11T08:15:38.753Z,102284.56
2022-10-11T08:18:05.494Z,102287.59
2022-10-11T08:20:33.074Z,102287.28
2022-10-11T08:22:59.468Z,102289.81
2022-10-11T08:25:25.881Z,102286.91
2022-10-11T08:27:52.340Z,102290.22
2022-10-11T08:30:18.839Z,102296.59
2022-10-11T08:32:45.292Z,102293.00
2022-10-11T08:35:11.637Z,102302.53
2022-10-11T08:37:38.057Z,102297.16
2022-10-11T08:40:05.857Z,102297.22
2022-10-11T08:42:38.289Z,102297.78
2022-10-11T08:45:11.370Z,102308.72
2022-10-11T08:47:40.691Z,102309.97
2022-10-11T08:50:13.281Z,102314.91
2022-10-11T08:52:44.716Z,102303.44
2022-10-11T08:55:23.343Z,102310.81
2022-10-11T08:57:53.092Z,102307.06
2022-10-11T09:00:19.854Z,102307.97
2022-10-11T09:03:06.879Z,102316.72
2022-10-11T09:05:34.796Z,102312.44
2022-10-11T09:08:10.481Z,102310.22
2022-10-11T09:10:55.421Z,102308.91
2022-10-11T09:13:31.034Z,102307.44
2022-10-11T09:16:26.836Z,102306.31
2022-10-11T09:18:59.128Z,102311.59
2022-10-11T09:21:44.188Z,102308.09
2022-10-11T09:24:21.871Z,102305.94
2022-10-11T09:27:05.197Z,102316.50
2022-10-11T09:29:43.876Z,102305.84
2022-10-11T09:32:17.734Z,102311.94
2022-10-11T09:34:44.115Z,102306.78
2022-10-11T09:37:27.621Z,102312.84
2022-10-11T09:39:58.701Z,102308.28
2022-10-11T09:42:25.050Z,102314.66
2022-10-11T09:44:51.941Z,102305.63
2022-10-11T09:47:28.895Z,102311.78
2022-10-11T09:50:06.656Z,102307.56
2022-10-11T09:52:33.451Z,102315.34
2022-10-11T09:55:01.243Z,102316.09
2022-10-11T09:57:29.221Z,102316.19
2022-10-11T10:00:20.354Z,102316.34
2022-10-11T10:02:48.824Z,102308.66
2022-10-11T10:05:28.675Z,102322.03
2022-10-11T10:07:59.744Z,102317.06
2022-10-11T10:10:33.960Z,102319.78
2022-10-11T10:13:01.768Z,102322.31
2022-10-11T10:15:37.751Z,102322.88
2022-10-11T10:18:06.326Z,102313.97
2022-10-11T10:20:34.135Z,102325.50
2022-10-11T10:23:10.678Z,102312.94
2022-10-11T10:25:43.381Z,102319.97
2022-10-11T10:28:25.964Z,102322.47
2022-10-11T10:30:58.728Z,102320.81
2022-10-11T10:33:27.175Z,102319.00
2022-10-11T10:36:06.005Z,102320.41
2022-10-11T10:38:33.923Z,102313.59
2022-10-11T10:41:06.054Z,102316.84
2022-10-11T10:43:36.509Z,102312.59
2022-10-11T10:46:21.646Z,102314.97
2022-10-11T10:49:23.586Z,102306.13
2022-10-11T10:51:43.654Z,102308.78
2022-10-11T10:54:28.263Z,102305.97
2022-10-11T10:57:02.768Z,102313.56
2022-10-11T10:59:32.249Z,102313.53
2022-10-11T11:02:15.958Z,102314.25
2022-10-11T11:05:00.785Z,102307.25
2022-10-11T11:07:32.389Z,102311.31
2022-10-11T11:10:05.592Z,102310.81
2022-10-11T11:12:39.885Z,102307.69
2022-10-11T11:15:06.239Z,102311.03
2022-10-11T11:17:45.153Z,102310.03
2022-10-11T11:20:14.612Z,102300.25
2022-10-11T11:22:41.127Z,102299.31
2022-10-11T11:25:14.630Z,102295.13
2022-10-11T11:27:41.286Z,102304.25
2022-10-11T11:30:13.522Z,102292.72
2022-10-11T11:32:55.036Z,102286.53
2022-10-11T11:35:32.006Z,102287.00
2022-10-11T11:38:06.352Z,102287.47
2022-10-11T11:40:37.218Z,102284.66
2022-10-11T11:43:12.394Z,102282.00
2022-10-11T11:46:00.519Z,102280.38
2022-10-11T11:48:26.995Z,102276.47
2022-10-11T11:50:56.616Z,102269.34
2022-10-11T11:53:31.504Z,102274.72
2022-10-11T11:56:01.027Z,102265.13
2022-10-11T11:58:46.005Z,102266.06
2022-10-11T12:01:18.270Z,102270.75
2022-10-11T12:03:48.839Z,102258.38
2022-10-11T12:06:15.923Z,102255.69
2022-10-11T12:08:43.521Z,102251.16
2022-10-11T12:11:24.261Z,102262.50
2022-10-11T12:13:52.342Z,102257.84
2022-10-11T12:16:19.194Z,102255.53
2022-10-11T12:18:48.524Z,102255.28
2022-10-11T12:21:24.787Z,102252.88
2022-10-11T12:23:52.500Z,102246.03
2022-10-11T12:26:31.547Z,102236.03
2022-10-11T12:29:16.937Z,102229.84
2022-10-11T12:31:46.217Z,102240.28
2022-10-11T12:34:17.566Z,102235.03
2022-10-11T12:36:45.203Z,102222.59
2022-10-11T12:39:20.873Z,102223.56
2022-10-11T12:41:47.195Z,102220.78
2022-10-11T12:44:23.881Z,102219.28
2022-10-11T12:46:50.221Z,102214.50
2022-10-11T12:49:16.528Z,102208.03
2022-10-11T12:52:03.141Z,102206.34
2022-10-11T12:54:38.216Z,102207.94
2022-10-11T12:57:32.438Z,102208.09
2022-10-11T13:00:08.218Z,102203.28
2022-10-11T13:02:39.200Z,102209.16
2022-10-11T13:05:18.078Z,102203.56
2022-10-11T13:07:45.088Z,102200.94
2022-10-11T13:10:16.180Z,102200.19
2022-10-11T13:12:43.366Z,102200.47
2022-10-11T13:15:14.651Z,102203.84
2022-10-11T13:17:41.236Z,102197.50
2022-10-11T13:20:17.098Z,102197.25
2022-10-11T13:22:44.258Z,102190.91
2022-10-11T13:25:14.446Z,102190.06
2022-10-11T13:27:40.826Z,102186.44
2022-10-11T13:30:11.097Z,102191.38
2022-10-11T13:32:37.472Z,102188.78
2022-10-11T13:35:14.456Z,102183.22
2022-10-11T13:37:44.038Z,102181.69
2022-10-11T13:40:14.638Z,102170.75
2022-10-11T13:42:41.184Z,102173.66
2022-10-11T13:45:12.734Z,102170.50
2022-10-11T13:47:39.543Z,102171.44
2022-10-11T13:50:09.189Z,102168.56
2022-10-11T13:52:35.701Z,102172.22
2022-10-11T13:55:05.829Z,102158.28
2022-10-11T13:57:34.972Z,102162.50
2022-10-11T14:00:02.528Z,102166.41
2022-10-11T14:02:38.486Z,102150.84
2022-10-11T14:05:05.118Z,102160.16
2022-10-11T14:07:35.869Z,102156.84
2022-10-11T14:10:03.131Z,102150.41
2022-10-11T14:12:39.595Z,102152.63
2022-10-11T14:15:26.311Z,102150.69
2022-10-11T14:17:52.789Z,102155.47
2022-10-11T14:20:33.393Z,102153.91
2022-10-11T14:23:00.098Z,102153.78
2022-10-11T14:25:26.914Z,102148.56
2022-10-11T14:27:54.840Z,102154.88
2022-10-11T14:30:27.455Z,102145.03
2022-10-11T14:32:56.450Z,102153.16
2022-10-11T14:35:28.545Z,102141.72
2022-10-11T14:37:55.074Z,102148.75
2022-10-11T14:40:22.831Z,102150.13
2022-10-11T14:42:49.522Z,102152.41
2022-10-11T14:45:16.427Z,102148.13
2022-10-11T14:47:43.413Z,102140.03
2022-10-11T14:50:32.684Z,102150.13
2022-10-11T14:52:59.843Z,102150.91
2022-10-11T14:55:26.368Z,102144.31
2022-10-11T14:57:52.768Z,102139.91
2022-10-11T15:00:24.528Z,102144.84
2022-10-11T15:02:52.671Z,102140.09
2022-10-11T15:05:20.397Z,102137.91
2022-10-11T15:07:47.151Z,102135.91
2022-10-11T15:10:24.153Z,102135.81
2022-10-11T15:12:51.652Z,102133.72
2022-10-11T15:15:22.794Z,102126.75
2022-10-11T15:17:50.784Z,102130.06
2022-10-11T15:20:19.533Z,102124.91
2022-10-11T15:22:46.149Z,102124.91
2022-10-11T15:25:12.731Z,102120.84
2022-10-11T15:27:39.130Z,102122.78
2022-10-11T15:30:25.791Z,102119.91
2022-10-11T15:32:53.123Z,102122.59
2022-10-11T15:35:20.803Z,102121.22
2022-10-11T15:37:47.659Z,102118.28
2022-10-11T15:40:25.812Z,102125.84
2022-10-11T15:42:53.402Z,102122.91
2022-10-11T15:45:20.216Z,102119.84
2022-10-11T15:47:47.635Z,102124.69
2022-10-11T15:50:15.767Z,102115.69
2022-10-11T15:52:42.945Z,102122.47
2022-10-11T15:55:09.296Z,102122.19
2022-10-11T15:57:35.744Z,102116.28
2022-10-11T16:00:03.039Z,102112.97
2022-10-11T16:02:38.282Z,102105.91
2022-10-11T16:05:04.854Z,102109.88
2022-10-11T16:07:32.663Z,102102.25
2022-10-11T16:09:59.227Z,102113.53
2022-10-11T16:12:28.649Z,102104.41
2022-10-11T16:14:55.142Z,102101.31
2022-10-11T16:17:21.542Z,102105.41
2022-10-11T16:19:47.978Z,102100.56
2022-10-11T16:22:14.428Z,102103.88
2022-10-11T16:24:41.785Z,102098.75
2022-10-11T16:27:08.170Z,102110.97
2022-10-11T16:29:34.573Z,102111.69
2022-10-11T16:32:00.927Z,102110.84
2022-10-11T16:34:27.341Z,102108.25
2022-10-11T16:36:53.739Z,102107.81
2022-10-11T16:39:20.517Z,102112.44
2022-10-11T16:41:47.324Z,102114.53
2022-10-11T16:44:14.616Z,102112.91
2022-10-11T16:46:41.406Z,102108.34
2022-10-11T16:49:07.941Z,102104.91
2022-10-11T16:51:34.412Z,102103.13
2022-10-11T16:54:01.126Z,102107.63
2022-10-11T16:56:27.908Z,102103.31
2022-10-11T16:58:54.439Z,102106.22
2022-10-11T17:01:20.982Z,102105.53
2022-10-11T17:03:48.702Z,102107.50
2022-10-11T17:06:15.144Z,102107.78
2022-10-11T17:08:41.586Z,102107.84
2022-10-11T17:11:08.140Z,102110.72
2022-10-11T17:13:34.489Z,102111.84
2022-10-11T17:16:00.841Z,102106.00
2022-10-11T17:18:27.205Z,102109.75
2022-10-11T17:21:02.739Z,102109.03
2022-10-11T17:23:29.104Z,102103.94
2022-10-11T17:25:55.496Z,102105.19
2022-10-11T17:28:22.097Z,102106.25
2022-10-11T17:30:55.655Z,102109.94
2022-10-11T17:33:26.148Z,102116.06
2022-10-11T17:35:53.259Z,102105.66
2022-10-11T17:38:20.745Z,102104.09
2022-10-11T17:40:47.442Z,102102.34
2022-10-11T17:43:15.623Z,102108.69
2022-10-11T17:45:42.067Z,102108.94
2022-10-11T17:48:08.443Z,102109.16
2022-10-11T17:50:34.844Z,102110.16
2022-10-11T17:53:01.390Z,102116.34
2022-10-11T17:55:27.768Z,102106.75
2022-10-11T17:57:54.193Z,102105.00
2022-10-11T18:00:20.604Z,102110.44
2022-10-11T18:02:50.486Z,102103.47
2022-10-11T18:05:17.590Z,102103.63
2022-10-11T18:07:43.939Z,102105.59
2022-10-11T18:10:10.364Z,102098.72
2022-10-11T18:12:36.738Z,102106.88
2022-10-11T18:15:03.240Z,102100.03
2022-10-11T18:17:29.592Z,102106.34
2022-10-11T18:19:56.525Z,102103.22
2022-10-11T18:22:23.025Z,102102.38
2022-10-11T18:24:49.520Z,102106.69
2022-10-11T18:27:15.982Z,102110.38
2022-10-11T18:29:43.486Z,102106.16
2022-10-11T18:32:10.020Z,102103.66
2022-10-11T18:34:36.600Z,102113.44
2022-10-11T18:37:03.254Z,102114.31
2022-10-11T18:39:29.684Z,102105.78
2022-10-11T18:41:56.062Z,102105.03
2022-10-11T18:44:22.575Z,102105.34
2022-10-11T18:46:50.297Z,102107.19
2022-10-11T18:49:16.683Z,102109.06
2022-10-11T18:51:44.922Z,102114.69
2022-10-11T18:54:13.966Z,102107.69
2022-10-11T18:56:43.235Z,102111.25
2022-10-11T18:59:10.014Z,102105.06
2022-10-11T19:01:41.357Z,102105.88
2022-10-11T19:04:09.407Z,102108.63
2022-10-11T19:06:39.024Z,102099.94
2022-10-11T19:09:06.667Z,102107.69
2022-10-11T19:11:33.145Z,102098.25
2022-10-11T19:14:25.837Z,102101.81
2022-10-11T19:16:52.866Z,102104.50
2022-10-11T19:19:20.436Z,102098.47
2022-10-11T19:21:48.593Z,102102.09
2022-10-11T19:24:18.898Z,102109.25
2022-10-11T19:26:45.287Z,102095.19
2022-10-11T19:29:15.820Z,102095.34
2022-10-11T19:31:44.009Z,102099.00
2022-10-11T19:34:13.474Z,102099.97
2022-10-11T19:36:42.578Z,102094.81
2022-10-11T19:39:12.484Z,102098.47
2022-10-11T19:41:38.856Z,102107.19
2022-10-11T19:44:05.562Z,102097.56
2022-10-11T19:46:50.959Z,102099.34
2022-10-11T19:49:23.487Z,102096.88
2022-10-11T19:51:50.249Z,102092.63
2022-10-11T19:54:16.790Z,102091.94
2022-10-11T19:56:43.558Z,102087.84
2022-10-11T19:59:10.445Z,102094.13
2022-10-11T20:01:36.983Z,102100.34
2022-10-11T20:04:04.942Z,102098.56
2022-10-11T20:06:38.624Z,102095.19
2022-10-11T20:09:27.983Z,102098.00
2022-10-11T20:11:52.435Z,102105.00
2022-10-11T20:14:18.916Z,102109.41
2022-10-11T20:16:45.336Z,102099.88
2022-10-11T20:19:11.781Z,102106.16
2022-10-11T20:21:38.525Z,102101.66
2022-10-11T20:24:05.277Z,102099.06
2022-10-11T20:26:31.950Z,102096.56
2022-10-11T20:28:58.656Z,102095.75
2022-10-11T20:31:26.676Z,102092.34
2022-10-11T20:33:57.551Z,102095.94
2022-10-11T20:36:25.011Z,102097.88
2022-10-11T20:38:52.272Z,102095.25
2022-10-11T20:41:20.177Z,102100.72
2022-10-11T20:43:50.879Z,102106.78
2022-10-11T20:46:18.906Z,102113.91
2022-10-11T20:49:05.522Z,102107.22
2022-10-11T20:51:33.485Z,102104.88
2022-10-11T20:54:00.874Z,102103.22
2022-10-11T20:56:28.043Z,102099.59
2022-10-11T20:58:55.136Z,102100.41
2022-10-11T21:01:22.857Z,102103.00
2022-10-11T21:03:50.353Z,102101.19
2022-10-11T21:06:16.913Z,102100.38
2022-10-11T21:08:43.688Z,102098.63
2022-10-11T21:11:10.822Z,102096.94
2022-10-11T21:13:37.759Z,102096.16
2022-10-11T21:16:05.413Z,102092.78
2022-10-11T21:18:32.121Z,102092.09
2022-10-11T21:21:04.312Z,102091.31
2022-10-11T21:23:30.756Z,102086.97
2022-10-11T21:26:00.093Z,102091.38
2022-10-11T21:28:26.818Z,102080.03
2022-10-11T21:30:53.218Z,102083.47
2022-10-11T21:33:19.621Z,102075.63
2022-10-11T21:35:46.072Z,102076.56
2022-10-11T21:38:13.298Z,102079.22
2022-10-11T21:40:40.769Z,102077.63
2022-10-11T21:43:07.614Z,102077.00
2022-10-11T21:45:37.923Z,102072.84
2022-10-11T21:48:04.778Z,102068.59
2022-10-11T21:50:31.643Z,102067.00
2022-10-11T21:52:58.179Z,102076.66
2022-10-11T21:55:25.899Z,102081.31
2022-10-11T21:57:52.292Z,102072.66
2022-10-11T22:00:18.731Z,102082.63
2022-10-11T22:02:45.100Z,102078.59
2022-10-11T22:05:11.462Z,102078.59
2022-10-11T22:07:37.997Z,102078.53
2022-10-11T22:10:04.614Z,102085.50
2022-10-11T22:12:30.976Z,102081.88
2022-10-11T22:14:57.432Z,102084.50
2022-10-11T22:17:24.009Z,102083.59
2022-10-11T22:19:50.442Z,102082.97
2022-10-11T22:22:17.034Z,102081.09
2022-10-11T22:24:43.420Z,102076.69
2022-10-11T22:27:09.939Z,102082.06
2022-10-11T22:29:36.328Z,102081.22
2022-10-11T22:32:02.741Z,102079.47
2022-10-11T22:34:32.645Z,102088.22
2022-10-11T22:36:58.995Z,102086.41
2022-10-11T22:39:25.617Z,102086.44
2022-10-11T22:41:53.164Z,102074.19
2022-10-11T22:44:19.519Z,102081.19
2022-10-11T22:46:46.372Z,102072.53
2022-10-11T22:49:12.785Z,102079.63
2022-10-11T22:51:39.163Z,102077.22
2022-10-11T22:54:05.666Z,102077.47
2022-10-11T22:56:32.099Z,102081.13
2022-10-11T22:58:58.824Z,102077.91
2022-10-11T23:01:25.197Z,102071.13
2022-10-11T23:03:51.603Z,102069.53
2022-10-11T23:06:18.061Z,102067.94
2022-10-11T23:08:44.427Z,102073.34
2022-10-11T23:11:11.275Z,102076.00
2022-10-11T23:13:37.800Z,102070.81
2022-10-11T23:16:11.147Z,102070.88
2022-10-11T23:18:37.759Z,102077.19
2022-10-11T23:21:05.049Z,102067.84
2022-10-11T23:23:31.426Z,102068.22
2022-10-11T23:26:06.721Z,102065.94
2022-10-11T23:28:33.679Z,102069.69
2022-10-11T23:31:00.284Z,102072.53
2022-10-11T23:33:27.937Z,102065.66
2022-10-11T23:35:54.291Z,102072.69
2022-10-11T23:38:20.678Z,102071.81
2022-10-11T23:40:47.035Z,102065.66
2022-10-11T23:43:13.441Z,102059.56
2022-10-11T23:45:39.814Z,102059.59
2022-10-11T23:48:06.273Z,102061.34
2022-10-11T23:50:32.667Z,102071.88
2022-10-11T23:52:58.998Z,102070.13
2022-10-11T23:55:25.408Z,102064.00
2022-10-11T23:57:51.856Z,102069.31
